Mabelvale, Arkansas
Current Conditions -  °F | °C
As of 6:53 PM on Thursday 27 Nov 2014 (Local Time) from KLIT Reporting Station
Scattered Clouds Scattered Clouds  
Wind Chill: 36°   Ceiling: Unl
Heat Index: 40°   Visibility: 10mi
Dew Point: 28°   Wind: 6mph
Humidity: 63%   Direction: 160°SSE
Pressure: 30.47"   Gusts: NA
Location:  34.66°N, 92.39°W
Report Text: KLIT 280053Z 16005KT 10SM SCT250 04/M02 A3047 RMK AO2 SLP323 T00441022
Loading
Personal Weather Stations






























Interactive Weather Map New forecast layout! Learn more

10-Day Weather Forecast

Advertisements
Track Severe Weather on mobile